Time;durP1;ratioP1;P1;durP2;ratioP2;P2;SDS_P1;SDS_P2;PMS_P1;PMS_P2;Temp;Humidity;BMP_temperature;BMP_pressure;BME280_temperature;BME280_humidity;BME280_pressure;Samples;Min_cycle;Max_cycle;Signal;HPM_P1;HPM_P2
2023/03/15 00:00:11;;;;;;;0.10;0.10;;;3.80;99.90;;;;;;5017534;28;20252;-86
2023/03/15 00:02:37;;;;;;;0.10;0.10;;;3.70;99.90;;;;;;5016972;28;20193;-86
2023/03/15 00:05:03;;;;;;;0.10;0.10;;;3.60;99.90;;;;;;5017208;28;20195;-87
2023/03/15 00:07:28;;;;;;;0.00;0.00;;;3.50;99.90;;;;;;5017121;28;20626;-85
2023/03/15 00:09:54;;;;;;;0.00;0.00;;;3.50;99.90;;;;;;5034124;28;20209;-86
2023/03/15 00:12:23;;;;;;;0.10;0.10;;;3.40;99.90;;;;;;5017832;28;20698;-85
2023/03/15 00:14:49;;;;;;;0.10;0.10;;;3.40;99.90;;;;;;5016965;28;21192;-87
2023/03/15 00:17:16;;;;;;;0.10;0.10;;;3.30;99.90;;;;;;5017477;28;20294;-86
2023/03/15 00:19:41;;;;;;;0.00;0.00;;;3.30;99.90;;;;;;5032323;28;20294;-86
2023/03/15 00:22:07;;;;;;;0.10;0.10;;;3.30;99.90;;;;;;5015936;28;20190;-87
2023/03/15 00:24:33;;;;;;;0.10;0.10;;;3.30;99.90;;;;;;5034358;28;20207;-87
2023/03/15 00:26:59;;;;;;;0.00;0.00;;;3.30;99.90;;;;;;5033894;28;20425;-86
2023/03/15 00:29:24;;;;;;;0.00;0.00;;;3.20;99.90;;;;;;5016172;28;20233;-86
2023/03/15 00:31:50;;;;;;;0.10;0.10;;;3.20;99.90;;;;;;5014895;28;20217;-86
2023/03/15 00:34:17;;;;;;;0.10;0.10;;;3.10;99.90;;;;;;5016258;28;20365;-86
2023/03/15 00:36:44;;;;;;;0.10;0.10;;;3.10;99.90;;;;;;5016360;28;20202;-86
2023/03/15 00:39:10;;;;;;;0.10;0.10;;;3.10;99.90;;;;;;5015400;28;20248;-87
2023/03/15 00:41:35;;;;;;;0.10;0.10;;;3.10;99.90;;;;;;5016252;28;20197;-86
2023/03/15 00:44:03;;;;;;;0.00;0.00;;;3.10;99.90;;;;;;5017092;28;20185;-86
2023/03/15 00:46:28;;;;;;;0.00;0.00;;;3.10;99.90;;;;;;5033630;28;20269;-86
2023/03/15 00:48:54;;;;;;;0.00;0.00;;;3.10;99.90;;;;;;5015552;28;20317;-87
2023/03/15 00:51:22;;;;;;;0.10;0.10;;;3.00;99.90;;;;;;5025103;28;20232;-86
2023/03/15 00:53:50;;;;;;;0.10;0.10;;;3.00;99.90;;;;;;5018101;28;20182;-87
2023/03/15 00:56:21;;;;;;;0.10;0.10;;;3.00;99.90;;;;;;5015412;28;20174;-86
2023/03/15 00:58:47;;;;;;;0.10;0.10;;;3.00;99.90;;;;;;5015589;28;20231;-86
2023/03/15 01:01:21;;;;;;;0.10;0.10;;;3.00;99.90;;;;;;5034080;28;20189;-87
2023/03/15 01:03:47;;;;;;;0.10;0.10;;;2.90;99.90;;;;;;5014612;28;20681;-87
2023/03/15 01:06:15;;;;;;;0.00;0.00;;;2.90;99.90;;;;;;5016404;28;20273;-87
2023/03/15 01:08:41;;;;;;;0.00;0.00;;;2.90;99.90;;;;;;5014555;28;20206;-87
2023/03/15 01:11:13;;;;;;;0.10;0.10;;;2.90;99.90;;;;;;5014658;28;20340;-86
2023/03/15 01:13:39;;;;;;;0.10;0.10;;;2.90;99.90;;;;;;5014393;28;20268;-87
2023/03/15 01:16:06;;;;;;;0.10;0.10;;;2.80;99.90;;;;;;5015937;28;21029;-86
2023/03/15 01:18:32;;;;;;;0.10;0.10;;;2.90;99.90;;;;;;5011995;28;20202;-87
2023/03/15 01:20:58;;;;;;;0.10;0.10;;;2.80;99.90;;;;;;5015598;28;20212;-87
2023/03/15 01:23:24;;;;;;;0.10;0.10;;;2.80;99.90;;;;;;5033789;28;20178;-86
2023/03/15 01:25:49;;;;;;;0.10;0.10;;;2.80;99.90;;;;;;5014630;28;20187;-87
2023/03/15 01:28:15;;;;;;;0.10;0.10;;;2.80;99.90;;;;;;5014330;28;20576;-86
2023/03/15 01:30:49;;;;;;;0.10;0.10;;;2.80;99.90;;;;;;5034544;28;20595;-87
2023/03/15 01:33:14;;;;;;;0.10;0.10;;;2.70;99.90;;;;;;5032731;28;20170;-86
2023/03/15 01:35:40;;;;;;;0.10;0.10;;;2.70;99.90;;;;;;5016789;28;20641;-86
2023/03/15 01:38:05;;;;;;;0.10;0.10;;;2.80;99.90;;;;;;5014766;28;20201;-87
2023/03/15 01:40:31;;;;;;;0.00;0.00;;;2.80;99.90;;;;;;5017160;28;20182;-86
2023/03/15 01:43:02;;;;;;;0.00;0.00;;;2.80;99.90;;;;;;5016354;28;20652;-87
2023/03/15 01:45:51;;;;;;;0.00;0.00;;;2.80;99.90;;;;;;5032634;28;20225;-86
2023/03/15 01:48:17;;;;;;;0.03;0.03;;;2.80;99.90;;;;;;5014021;28;20210;-87
2023/03/15 01:50:43;;;;;;;0.10;0.10;;;2.70;99.90;;;;;;5034753;28;20249;-86
2023/03/15 01:53:09;;;;;;;0.10;0.10;;;2.70;99.90;;;;;;5033903;28;20374;-87
2023/03/15 01:55:35;;;;;;;0.10;0.10;;;2.70;99.90;;;;;;5017190;28;20196;-87
2023/03/15 01:58:05;;;;;;;0.10;0.10;;;2.60;99.90;;;;;;5017802;28;20204;-87
2023/03/15 02:00:31;;;;;;;0.10;0.10;;;2.60;99.90;;;;;;5034148;28;20189;-86
2023/03/15 02:03:05;;;;;;;0.10;0.10;;;2.60;99.90;;;;;;5017905;28;20582;-86
2023/03/15 02:05:35;;;;;;;0.10;0.10;;;2.60;99.90;;;;;;5015474;28;20648;-87
2023/03/15 02:08:03;;;;;;;0.10;0.10;;;2.60;99.90;;;;;;5012246;28;20317;-87
2023/03/15 02:10:44;;;;;;;0.00;0.00;;;2.60;99.90;;;;;;5016926;28;20206;-86
2023/03/15 02:13:12;;;;;;;0.00;0.00;;;2.60;99.90;;;;;;5018244;28;20196;-86
2023/03/15 02:15:37;;;;;;;0.00;0.00;;;2.50;99.90;;;;;;5032711;28;20190;-86
2023/03/15 02:18:03;;;;;;;0.10;0.10;;;2.50;99.90;;;;;;5033231;28;20410;-87
2023/03/15 02:20:56;;;;;;;0.10;0.10;;;2.50;99.90;;;;;;5016005;28;20182;-87
2023/03/15 02:23:22;;;;;;;0.00;0.00;;;2.40;99.90;;;;;;5020607;28;20308;-87
2023/03/15 02:26:06;;;;;;;0.10;0.10;;;2.40;99.90;;;;;;5020452;28;20190;-86
2023/03/15 02:28:33;;;;;;;0.00;0.00;;;2.50;99.90;;;;;;5019338;28;20321;-86
2023/03/15 02:30:59;;;;;;;0.10;0.10;;;2.60;99.90;;;;;;5020041;28;20210;-86
2023/03/15 02:33:31;;;;;;;0.00;0.00;;;2.60;99.90;;;;;;5019421;28;20206;-86
2023/03/15 02:36:13;;;;;;;0.10;0.10;;;2.70;99.90;;;;;;5020391;28;20181;-87
2023/03/15 02:38:39;;;;;;;0.10;0.10;;;2.70;99.90;;;;;;5019987;28;20286;-85
2023/03/15 02:41:06;;;;;;;0.10;0.10;;;2.70;99.90;;;;;;5021307;28;20196;-86
2023/03/15 02:43:32;;;;;;;0.10;0.10;;;2.70;99.90;;;;;;5022712;28;20194;-87
2023/03/15 02:46:01;;;;;;;0.10;0.10;;;2.60;99.90;;;;;;5021633;28;20195;-87
2023/03/15 02:48:29;;;;;;;0.07;0.07;;;2.60;99.90;;;;;;5020455;28;20601;-87
2023/03/15 02:50:55;;;;;;;0.10;0.10;;;2.60;99.90;;;;;;5028215;28;20205;-86
2023/03/15 02:53:20;;;;;;;0.10;0.10;;;2.50;99.90;;;;;;5021402;28;20197;-86
2023/03/15 02:55:46;;;;;;;0.10;0.10;;;2.50;99.90;;;;;;5020191;28;20213;-87
2023/03/15 02:58:11;;;;;;;0.00;0.00;;;2.40;99.90;;;;;;5019686;28;20202;-87
2023/03/15 03:00:38;;;;;;;0.07;0.07;;;2.30;99.90;;;;;;5019296;28;20653;-87
2023/03/15 03:03:03;;;;;;;0.10;0.10;;;2.30;99.90;;;;;;5037283;28;20209;-87
2023/03/15 03:05:29;;;;;;;0.10;0.10;;;2.30;99.90;;;;;;5017688;28;20698;-86
2023/03/15 03:07:55;;;;;;;0.10;0.10;;;2.30;99.90;;;;;;5018444;28;20277;-87
2023/03/15 03:10:21;;;;;;;0.00;0.00;;;2.30;99.90;;;;;;5020152;28;20214;-87
2023/03/15 03:12:46;;;;;;;0.10;0.10;;;2.30;99.90;;;;;;5019883;28;20196;-87
2023/03/15 03:15:12;;;;;;;0.07;0.07;;;2.30;99.90;;;;;;5022271;28;20194;-87
2023/03/15 03:17:37;;;;;;;0.10;0.10;;;2.30;99.90;;;;;;5019728;28;20724;-87
2023/03/15 03:20:10;;;;;;;0.10;0.10;;;2.30;99.90;;;;;;5022411;28;20234;-86
2023/03/15 03:22:36;;;;;;;0.10;0.10;;;2.20;99.90;;;;;;5022385;28;20186;-86
2023/03/15 03:25:03;;;;;;;0.00;0.00;;;2.20;99.90;;;;;;5033755;28;20880;-87
2023/03/15 03:27:29;;;;;;;0.10;0.10;;;2.20;99.90;;;;;;5023868;28;20612;-87
2023/03/15 03:29:54;;;;;;;0.10;0.10;;;2.20;99.90;;;;;;5036891;28;20267;-86
2023/03/15 03:32:20;;;;;;;0.10;0.10;;;2.10;99.90;;;;;;5037705;28;20306;-85
2023/03/15 03:34:47;;;;;;;0.10;0.10;;;2.10;99.90;;;;;;5019233;28;20204;-86
2023/03/15 03:37:18;;;;;;;0.10;0.10;;;2.10;99.90;;;;;;5019367;28;20192;-86
2023/03/15 03:39:43;;;;;;;0.10;0.10;;;2.10;99.90;;;;;;5033184;28;20239;-87
2023/03/15 03:42:09;;;;;;;0.10;0.10;;;2.10;99.90;;;;;;5037481;28;20199;-87
2023/03/15 03:44:36;;;;;;;0.10;0.10;;;2.10;99.90;;;;;;5038219;28;20193;-87
2023/03/15 03:47:01;;;;;;;0.10;0.10;;;2.10;99.90;;;;;;5039739;28;20189;-87
2023/03/15 03:49:27;;;;;;;0.10;0.10;;;2.10;99.90;;;;;;5038650;28;20221;-87
2023/03/15 03:51:52;;;;;;;0.03;0.03;;;2.10;99.90;;;;;;5021444;28;20216;-87
2023/03/15 03:54:20;;;;;;;0.10;0.10;;;2.10;99.90;;;;;;5039489;28;20190;-86
2023/03/15 03:56:46;;;;;;;0.10;0.10;;;2.20;99.90;;;;;;5019323;28;20743;-86
2023/03/15 03:59:11;;;;;;;0.10;0.10;;;2.30;99.90;;;;;;5018609;28;20257;-85
2023/03/15 04:01:37;;;;;;;0.10;0.10;;;2.30;99.90;;;;;;5019067;28;20642;-86
2023/03/15 04:04:02;;;;;;;0.03;0.03;;;2.40;99.90;;;;;;5017930;28;20592;-87
2023/03/15 04:06:28;;;;;;;0.10;0.10;;;2.40;99.90;;;;;;5016802;28;21020;-86
2023/03/15 04:08:53;;;;;;;0.10;0.10;;;2.40;99.90;;;;;;5017699;28;20682;-85
2023/03/15 04:11:19;;;;;;;0.07;0.07;;;2.40;99.90;;;;;;5018714;28;20217;-86
2023/03/15 04:13:44;;;;;;;0.00;0.00;;;2.40;99.90;;;;;;5015884;28;20225;-86
2023/03/15 04:16:11;;;;;;;0.10;0.10;;;2.40;99.90;;;;;;5017030;28;20189;-87
2023/03/15 04:18:38;;;;;;;0.10;0.10;;;2.40;99.90;;;;;;5016811;28;20217;-86
2023/03/15 04:21:09;;;;;;;0.10;0.10;;;2.40;99.90;;;;;;5017188;28;20204;-87
2023/03/15 04:23:36;;;;;;;0.10;0.10;;;2.50;99.90;;;;;;5017250;28;20192;-85
2023/03/15 04:26:02;;;;;;;0.10;0.10;;;2.50;99.90;;;;;;5017827;28;20177;-84
2023/03/15 04:28:29;;;;;;;0.10;0.10;;;2.50;99.90;;;;;;5016728;28;20237;-86
2023/03/15 04:30:57;;;;;;;0.10;0.10;;;2.60;99.90;;;;;;5016102;28;20231;-87
2023/03/15 04:33:26;;;;;;;0.10;0.10;;;2.60;99.90;;;;;;5014837;28;20190;-86
2023/03/15 04:35:52;;;;;;;0.00;0.00;;;2.60;99.90;;;;;;5016110;28;20178;-86
2023/03/15 04:38:18;;;;;;;0.10;0.10;;;2.60;99.90;;;;;;5017526;28;20255;-86
2023/03/15 04:40:44;;;;;;;0.10;0.10;;;2.70;99.90;;;;;;5016917;28;20203;-85
2023/03/15 04:43:10;;;;;;;0.10;0.10;;;2.80;99.90;;;;;;5017214;28;20186;-85
2023/03/15 04:45:35;;;;;;;0.10;0.10;;;2.80;99.90;;;;;;5016080;28;20236;-86
2023/03/15 04:48:01;;;;;;;0.10;0.10;;;2.90;99.90;;;;;;5016220;28;20205;-87
2023/03/15 04:50:28;;;;;;;0.00;0.00;;;3.00;99.90;;;;;;5033356;28;20244;-86
2023/03/15 04:52:53;;;;;;;0.00;0.00;;;3.00;99.90;;;;;;5017058;28;20723;-86
2023/03/15 04:55:19;;;;;;;0.10;0.10;;;3.10;99.90;;;;;;5016368;28;20186;-86
2023/03/15 04:57:45;;;;;;;0.10;0.10;;;3.20;99.90;;;;;;5017942;28;20206;-87
2023/03/15 05:00:11;;;;;;;0.10;0.10;;;3.20;99.90;;;;;;5033990;28;20194;-86
2023/03/15 05:02:38;;;;;;;0.10;0.10;;;3.30;99.90;;;;;;5016336;28;20200;-86
2023/03/15 05:05:05;;;;;;;0.10;0.10;;;3.30;99.90;;;;;;5015311;28;20194;-86
2023/03/15 05:07:33;;;;;;;0.00;0.00;;;3.30;99.90;;;;;;5017875;28;20595;-86
2023/03/15 05:09:58;;;;;;;0.10;0.10;;;3.40;99.90;;;;;;5017646;28;20216;-86
2023/03/15 05:12:24;;;;;;;0.10;0.10;;;3.40;99.90;;;;;;5016049;28;20181;-87
2023/03/15 05:14:50;;;;;;;0.10;0.10;;;3.40;99.90;;;;;;5015961;28;20196;-86
2023/03/15 05:17:15;;;;;;;0.10;0.10;;;3.50;99.90;;;;;;5015961;28;20189;-85
2023/03/15 05:19:41;;;;;;;0.10;0.10;;;3.50;99.90;;;;;;5014493;28;20831;-86
2023/03/15 05:22:07;;;;;;;0.10;0.10;;;3.50;99.90;;;;;;5033186;28;20264;-85
2023/03/15 05:24:32;;;;;;;0.10;0.10;;;3.50;99.90;;;;;;5035051;28;20265;-87
2023/03/15 05:26:58;;;;;;;0.03;0.03;;;3.60;99.90;;;;;;5031583;28;20190;-84
2023/03/15 05:29:24;;;;;;;0.10;0.10;;;3.40;99.90;;;;;;5014449;28;20230;-87
2023/03/15 05:31:51;;;;;;;0.10;0.10;;;3.50;99.90;;;;;;5015686;28;20206;-86
2023/03/15 05:34:17;;;;;;;0.10;0.10;;;3.50;99.90;;;;;;5016478;28;20210;-87
2023/03/15 05:36:43;;;;;;;0.10;0.10;;;3.60;99.90;;;;;;5031781;28;20193;-86
2023/03/15 05:39:10;;;;;;;0.10;0.10;;;3.70;99.90;;;;;;5015399;28;20214;-86
2023/03/15 05:41:36;;;;;;;0.10;0.10;;;3.70;99.90;;;;;;5017865;28;20189;-87
2023/03/15 05:44:03;;;;;;;0.10;0.10;;;3.70;99.90;;;;;;5015796;28;20544;-84
2023/03/15 05:46:30;;;;;;;0.10;0.10;;;3.70;99.90;;;;;;5014389;28;20277;-84
2023/03/15 05:48:57;;;;;;;0.10;0.10;;;3.60;99.90;;;;;;5015649;28;20202;-85
2023/03/15 05:51:22;;;;;;;0.10;0.10;;;3.60;99.90;;;;;;5014049;28;20300;-85
2023/03/15 05:53:48;;;;;;;0.00;0.00;;;3.60;99.90;;;;;;5017879;28;20269;-85
2023/03/15 05:56:13;;;;;;;0.10;0.10;;;3.60;99.90;;;;;;5033969;28;20212;-85
2023/03/15 05:58:39;;;;;;;0.07;0.07;;;3.70;99.90;;;;;;5019993;28;20657;-86
2023/03/15 06:01:04;;;;;;;0.10;0.10;;;3.60;99.90;;;;;;5019179;28;20949;-86
2023/03/15 06:03:30;;;;;;;0.10;0.10;;;3.70;99.90;;;;;;5036889;28;20548;-87
2023/03/15 06:05:57;;;;;;;0.00;0.00;;;3.60;99.90;;;;;;5038459;28;20214;-85
2023/03/15 06:08:23;;;;;;;0.00;0.00;;;3.70;99.90;;;;;;5021252;28;20573;-85
2023/03/15 06:10:49;;;;;;;0.10;0.10;;;3.70;99.90;;;;;;5017321;28;20194;-86
2023/03/15 06:13:15;;;;;;;0.10;0.10;;;3.70;99.90;;;;;;5033077;28;20597;-84
2023/03/15 06:15:40;;;;;;;0.10;0.10;;;3.70;99.90;;;;;;5016703;28;20197;-83
2023/03/15 06:18:07;;;;;;;0.10;0.10;;;3.80;99.90;;;;;;5016678;28;20218;-84
2023/03/15 06:20:32;;;;;;;0.10;0.10;;;3.80;99.90;;;;;;5017975;28;20205;-86
2023/03/15 06:22:58;;;;;;;0.10;0.10;;;3.70;99.90;;;;;;5019957;28;20208;-87
2023/03/15 06:25:23;;;;;;;0.10;0.10;;;3.80;99.90;;;;;;5019594;28;20236;-82
2023/03/15 06:27:49;;;;;;;0.10;0.10;;;3.70;99.90;;;;;;5022046;28;20212;-82
2023/03/15 06:30:15;;;;;;;0.00;0.00;;;3.70;99.90;;;;;;5018358;28;20214;-84
2023/03/15 06:32:41;;;;;;;0.10;0.10;;;3.80;99.90;;;;;;5017133;28;20181;-83
2023/03/15 06:35:07;;;;;;;0.00;0.00;;;3.70;99.90;;;;;;5019614;28;20181;-83
2023/03/15 06:37:35;;;;;;;0.10;0.10;;;3.80;99.90;;;;;;5018375;28;20579;-84
2023/03/15 06:40:07;;;;;;;0.07;0.07;;;3.80;99.90;;;;;;5017845;28;20198;-83
2023/03/15 06:42:33;;;;;;;0.10;0.10;;;3.80;99.90;;;;;;5035993;28;20263;-84
2023/03/15 06:45:00;;;;;;;0.10;0.10;;;3.70;99.90;;;;;;5021178;28;20197;-83
2023/03/15 06:47:25;;;;;;;0.10;0.10;;;3.80;99.90;;;;;;5018316;28;20190;-84
2023/03/15 06:49:51;;;;;;;0.10;0.10;;;3.80;99.90;;;;;;5019448;28;20245;-84
2023/03/15 06:52:17;;;;;;;0.10;0.10;;;3.80;99.90;;;;;;5037874;28;20220;-83
2023/03/15 06:54:42;;;;;;;0.10;0.10;;;3.80;99.90;;;;;;5038797;28;20185;-83
2023/03/15 06:57:08;;;;;;;0.10;0.10;;;3.80;99.90;;;;;;5021525;28;20671;-84
2023/03/15 06:59:33;;;;;;;0.00;0.00;;;3.90;99.90;;;;;;5021761;28;20201;-84
2023/03/15 07:01:59;;;;;;;0.10;0.10;;;3.90;99.90;;;;;;5022907;28;20186;-83
2023/03/15 07:04:25;;;;;;;0.10;0.10;;;4.00;99.90;;;;;;5019283;28;20214;-84
2023/03/15 07:06:51;;;;;;;0.00;0.00;;;3.90;99.90;;;;;;5024726;28;20191;-83
2023/03/15 07:09:16;;;;;;;0.10;0.10;;;4.00;99.90;;;;;;5030326;28;21378;-83
2023/03/15 07:11:42;;;;;;;0.10;0.10;;;4.10;99.90;;;;;;5031622;28;20587;-83
2023/03/15 07:14:08;;;;;;;0.10;0.10;;;4.20;99.90;;;;;;5023988;28;20186;-83
2023/03/15 07:16:33;;;;;;;0.10;0.10;;;4.30;99.90;;;;;;5021884;28;20221;-83
2023/03/15 07:19:00;;;;;;;0.10;0.10;;;4.20;99.90;;;;;;5021674;28;20206;-83
2023/03/15 07:21:26;;;;;;;0.10;0.10;;;4.40;99.90;;;;;;5021295;28;20198;-84
2023/03/15 07:23:52;;;;;;;0.10;0.10;;;4.50;99.90;;;;;;5023274;28;20190;-84
2023/03/15 07:26:17;;;;;;;0.07;0.07;;;4.50;99.90;;;;;;5023404;28;20193;-83
2023/03/15 07:28:43;;;;;;;0.10;0.10;;;4.60;99.90;;;;;;5022492;28;20267;-84
2023/03/15 07:31:10;;;;;;;0.10;0.10;;;4.40;99.90;;;;;;5021886;28;20221;-84
2023/03/15 07:33:37;;;;;;;0.10;0.10;;;4.30;99.90;;;;;;5038629;28;20190;-83
2023/03/15 07:36:04;;;;;;;0.10;0.10;;;4.30;99.90;;;;;;5038232;28;20186;-83
2023/03/15 07:38:30;;;;;;;0.10;0.10;;;4.40;99.90;;;;;;5016537;28;20221;-83
2023/03/15 07:40:57;;;;;;;0.10;0.10;;;4.50;99.90;;;;;;5037096;28;20213;-83
2023/03/15 07:43:23;;;;;;;0.10;0.10;;;4.50;99.90;;;;;;5027310;28;20674;-83
2023/03/15 07:45:49;;;;;;;0.10;0.10;;;4.50;99.90;;;;;;5020134;28;20216;-83
2023/03/15 07:48:15;;;;;;;0.10;0.10;;;4.30;99.90;;;;;;5020365;28;20215;-84
2023/03/15 07:50:41;;;;;;;0.10;0.10;;;4.20;99.90;;;;;;5018211;28;20206;-83
2023/03/15 07:53:07;;;;;;;0.10;0.10;;;4.20;99.90;;;;;;5019908;28;20284;-83
2023/03/15 07:55:33;;;;;;;0.10;0.10;;;4.20;99.90;;;;;;5019164;28;20183;-84
2023/03/15 07:57:58;;;;;;;0.10;0.10;;;4.20;99.90;;;;;;5037613;28;20241;-82
2023/03/15 08:00:24;;;;;;;0.10;0.10;;;4.20;99.90;;;;;;5017174;28;20186;-82
2023/03/15 08:02:50;;;;;;;0.10;0.10;;;4.30;99.90;;;;;;5018200;28;20257;-84
2023/03/15 08:05:17;;;;;;;0.10;0.10;;;4.20;99.90;;;;;;5036958;28;20225;-83
2023/03/15 08:07:44;;;;;;;0.10;0.10;;;4.20;99.90;;;;;;5016616;28;20263;-83
2023/03/15 08:10:11;;;;;;;0.10;0.10;;;4.30;99.90;;;;;;5032708;28;20305;-82
2023/03/15 08:12:38;;;;;;;0.00;0.00;;;4.40;99.90;;;;;;5035809;28;20197;-83
2023/03/15 08:15:04;;;;;;;0.00;0.00;;;4.50;99.90;;;;;;5019896;28;20183;-84
2023/03/15 08:17:31;;;;;;;0.10;0.10;;;4.50;99.90;;;;;;5017509;28;21030;-84
2023/03/15 08:19:56;;;;;;;0.10;0.10;;;4.70;99.90;;;;;;5036439;28;20231;-84
2023/03/15 08:22:22;;;;;;;0.10;0.10;;;4.60;99.90;;;;;;5018631;28;20182;-84
2023/03/15 08:24:49;;;;;;;0.10;0.10;;;4.40;99.90;;;;;;5017762;28;20189;-83
2023/03/15 08:27:15;;;;;;;0.10;0.10;;;4.40;99.90;;;;;;5018829;28;20186;-83
2023/03/15 08:29:40;;;;;;;0.10;0.10;;;4.50;99.90;;;;;;5036701;28;20203;-85
2023/03/15 08:32:06;;;;;;;0.10;0.10;;;4.60;99.90;;;;;;5036190;28;20678;-83
2023/03/15 08:34:33;;;;;;;0.10;0.10;;;4.50;99.90;;;;;;5017742;28;20235;-83
2023/03/15 08:37:00;;;;;;;0.10;0.10;;;4.50;99.90;;;;;;5015964;28;20296;-85
2023/03/15 08:39:25;;;;;;;0.10;0.10;;;4.50;99.90;;;;;;5016355;28;20205;-85
2023/03/15 08:41:51;;;;;;;0.10;0.10;;;4.60;99.90;;;;;;5017899;28;20190;-84
2023/03/15 08:44:16;;;;;;;0.10;0.10;;;4.60;99.90;;;;;;5035120;28;20204;-85
2023/03/15 08:46:42;;;;;;;0.10;0.10;;;4.70;99.90;;;;;;5017588;28;20186;-84
2023/03/15 08:49:07;;;;;;;0.10;0.10;;;4.90;99.90;;;;;;5016210;28;20213;-84
2023/03/15 08:51:33;;;;;;;0.10;0.10;;;5.10;99.90;;;;;;5018193;28;20256;-84
2023/03/15 08:54:02;;;;;;;0.00;0.00;;;5.20;99.90;;;;;;5034065;28;20177;-84
2023/03/15 08:56:28;;;;;;;0.10;0.10;;;5.20;99.90;;;;;;5016835;28;20236;-84
2023/03/15 08:58:54;;;;;;;0.10;0.10;;;5.30;99.90;;;;;;5015094;28;20202;-84
2023/03/15 09:01:19;;;;;;;0.10;0.10;;;5.30;99.90;;;;;;5014883;28;20206;-84
2023/03/15 09:03:45;;;;;;;0.10;0.10;;;5.30;99.90;;;;;;5017409;28;20190;-84
2023/03/15 09:06:11;;;;;;;0.10;0.10;;;5.30;99.90;;;;;;5015410;28;20195;-84
2023/03/15 09:08:36;;;;;;;0.10;0.10;;;5.40;99.90;;;;;;5033387;28;20210;-85
2023/03/15 09:11:02;;;;;;;0.10;0.10;;;5.30;99.90;;;;;;5016482;28;20381;-84
2023/03/15 09:13:28;;;;;;;0.00;0.00;;;5.40;99.90;;;;;;5017766;28;20221;-84
2023/03/15 09:15:55;;;;;;;0.10;0.10;;;5.40;99.90;;;;;;5015009;28;20603;-85
2023/03/15 09:18:21;;;;;;;0.10;0.10;;;5.60;99.90;;;;;;5014710;28;20206;-84
2023/03/15 09:20:46;;;;;;;0.10;0.10;;;5.50;99.90;;;;;;5014963;28;20243;-84
2023/03/15 09:23:12;;;;;;;0.10;0.10;;;5.60;99.90;;;;;;5016106;28;20226;-85
2023/03/15 09:25:38;;;;;;;0.10;0.10;;;5.70;99.90;;;;;;5030018;28;20185;-83
2023/03/15 09:28:10;;;;;;;0.10;0.10;;;5.80;99.90;;;;;;5010148;28;20216;-85
2023/03/15 09:30:37;;;;;;;0.10;0.10;;;6.00;99.90;;;;;;5011193;28;20780;-85
2023/03/15 09:33:03;;;;;;;0.10;0.10;;;6.30;99.90;;;;;;5010990;28;20291;-84
2023/03/15 09:35:29;;;;;;;0.10;0.10;;;6.50;99.90;;;;;;5027908;28;20273;-84
2023/03/15 09:37:54;;;;;;;0.00;0.00;;;6.70;99.90;;;;;;5006031;28;20293;-84
2023/03/15 09:40:26;;;;;;;0.10;0.10;;;6.90;99.90;;;;;;5028643;28;20184;-83
2023/03/15 09:43:05;;;;;;;0.00;0.00;;;7.00;99.90;;;;;;5011634;28;20278;-84
2023/03/15 09:46:08;;;;;;;0.10;0.10;;;7.20;99.90;;;;;;5032003;28;20254;-84
2023/03/15 09:48:47;;;;;;;0.10;0.10;;;7.30;99.90;;;;;;5014337;28;20216;-85
2023/03/15 09:51:20;;;;;;;0.10;0.10;;;7.80;99.90;;;;;;5015208;28;20227;-84
2023/03/15 09:54:01;;;;;;;0.10;0.10;;;7.80;99.90;;;;;;5036520;28;20207;-84
2023/03/15 09:56:29;;;;;;;0.00;0.00;;;8.00;99.90;;;;;;5015967;28;20186;-85
2023/03/15 09:58:58;;;;;;;0.10;0.10;;;8.00;99.90;;;;;;5015248;28;20283;-84
2023/03/15 10:01:36;;;;;;;0.10;0.10;;;7.90;99.90;;;;;;5013396;28;20196;-84
2023/03/15 10:04:12;;;;;;;0.10;0.10;;;8.00;99.90;;;;;;5013547;28;20188;-84
2023/03/15 10:06:44;;;;;;;0.07;0.07;;;7.90;99.90;;;;;;5013208;28;20184;-84
2023/03/15 10:09:17;;;;;;;0.10;0.10;;;8.20;99.90;;;;;;5009068;28;20319;-84
2023/03/15 10:11:53;;;;;;;0.07;0.07;;;8.10;99.90;;;;;;5029902;28;20736;-84
2023/03/15 10:14:28;;;;;;;0.07;0.07;;;8.20;99.90;;;;;;5023198;28;20819;-83
2023/03/15 10:16:53;;;;;;;0.10;0.10;;;8.60;99.90;;;;;;5014334;28;21044;-87
2023/03/15 10:19:44;;;;;;;0.10;0.10;;;9.00;99.90;;;;;;5012901;28;20319;-86
2023/03/15 10:22:13;;;;;;;0.10;0.10;;;9.60;99.90;;;;;;5013914;28;20194;-86
2023/03/15 10:24:44;;;;;;;0.10;0.10;;;9.70;99.90;;;;;;5016472;28;20184;-85
2023/03/15 10:27:36;;;;;;;0.03;0.03;;;9.70;99.90;;;;;;5031017;28;20692;-87
2023/03/15 10:30:15;;;;;;;0.10;0.10;;;10.10;99.90;;;;;;4989577;28;20671;-87
2023/03/15 10:32:43;;;;;;;0.10;0.10;;;8.70;99.90;;;;;;5032067;28;20192;-85
2023/03/15 10:35:18;;;;;;;0.00;0.00;;;8.30;99.90;;;;;;5030462;28;20199;-85
2023/03/15 10:37:44;;;;;;;0.10;0.10;;;8.10;99.90;;;;;;5030341;28;20673;-86
2023/03/15 10:40:17;;;;;;;0.10;0.10;;;7.90;99.90;;;;;;5030293;28;20243;-84
2023/03/15 10:42:47;;;;;;;0.00;0.00;;;7.50;99.90;;;;;;5036515;28;20206;-84
2023/03/15 10:45:21;;;;;;;0.10;0.10;;;7.40;99.90;;;;;;5021546;28;20209;-83
2023/03/15 10:47:48;;;;;;;0.10;0.10;;;7.40;99.90;;;;;;5019346;28;20209;-82
2023/03/15 10:50:31;;;;;;;0.10;0.10;;;6.80;99.90;;;;;;5016900;28;20201;-82
2023/03/15 10:52:58;;;;;;;0.10;0.10;;;6.80;99.90;;;;;;5017642;28;20196;-83
2023/03/15 10:55:35;;;;;;;0.40;0.40;;;6.70;99.90;;;;;;5045111;28;20727;-82
2023/03/15 10:58:19;;;;;;;0.10;0.10;;;7.20;99.90;;;;;;5048351;28;20208;-83
2023/03/15 11:00:59;;;;;;;0.00;0.00;;;7.70;99.90;;;;;;5021449;28;20191;-82
2023/03/15 11:03:25;;;;;;;0.10;0.10;;;7.70;99.90;;;;;;5020393;28;20196;-83
2023/03/15 11:05:53;;;;;;;0.10;0.10;;;7.40;99.90;;;;;;5038269;28;20189;-82
2023/03/15 11:08:22;;;;;;;0.10;0.10;;;7.80;99.90;;;;;;5036152;28;20356;-82
2023/03/15 11:10:57;;;;;;;0.10;0.10;;;7.70;99.90;;;;;;5018485;28;20296;-82
2023/03/15 11:13:28;;;;;;;0.10;0.10;;;8.10;99.90;;;;;;5033777;28;20211;-82
2023/03/15 11:16:12;;;;;;;0.10;0.10;;;8.30;99.90;;;;;;5039581;28;20182;-82
2023/03/15 11:18:43;;;;;;;0.10;0.10;;;8.00;99.90;;;;;;5037218;28;20255;-82
2023/03/15 11:21:14;;;;;;;0.10;0.10;;;7.80;99.90;;;;;;5017915;28;20208;-83
2023/03/15 11:23:47;;;;;;;0.03;0.03;;;7.60;99.90;;;;;;5016698;28;20710;-82
2023/03/15 11:26:24;;;;;;;0.10;0.10;;;7.60;99.90;;;;;;5018298;28;20182;-83
2023/03/15 11:28:57;;;;;;;0.00;0.00;;;7.60;99.90;;;;;;5014815;28;20643;-82
2023/03/15 11:31:26;;;;;;;0.10;0.10;;;7.80;99.90;;;;;;5024330;28;20265;-82
2023/03/15 11:33:59;;;;;;;0.10;0.10;;;7.80;99.90;;;;;;5021718;28;20216;-85
2023/03/15 11:36:30;;;;;;;0.10;0.10;;;7.70;99.90;;;;;;5020277;28;20219;-84
2023/03/15 11:38:59;;;;;;;0.10;0.10;;;7.50;99.90;;;;;;5017573;28;20198;-83
2023/03/15 11:41:29;;;;;;;0.10;0.10;;;7.60;99.90;;;;;;5036540;28;20201;-84
2023/03/15 11:44:09;;;;;;;0.10;0.10;;;7.50;99.90;;;;;;5019849;28;22039;-84
2023/03/15 11:47:00;;;;;;;0.10;0.10;;;7.20;99.90;;;;;;5047477;28;20212;-84
2023/03/15 11:49:46;;;;;;;0.10;0.10;;;7.20;99.90;;;;;;5019563;28;20269;-83
2023/03/15 11:52:14;;;;;;;0.10;0.10;;;7.50;99.90;;;;;;5019383;28;20836;-83
2023/03/15 11:54:40;;;;;;;0.10;0.10;;;7.90;99.90;;;;;;5018158;28;20181;-85
2023/03/15 11:57:29;;;;;;;0.10;0.10;;;8.20;99.90;;;;;;5033613;28;20247;-84
2023/03/15 11:59:56;;;;;;;0.10;0.10;;;8.50;99.90;;;;;;5014740;28;20226;-85
2023/03/15 12:02:21;;;;;;;0.10;0.10;;;8.50;99.90;;;;;;5038305;28;20186;-85
2023/03/15 12:04:53;;;;;;;0.10;0.10;;;8.50;99.90;;;;;;5022375;28;20188;-84
2023/03/15 12:07:18;;;;;;;0.03;0.03;;;8.70;99.90;;;;;;5019963;28;20227;-84
2023/03/15 12:09:55;;;;;;;0.10;0.10;;;8.70;99.90;;;;;;5018327;28;21062;-84
2023/03/15 12:12:23;;;;;;;0.10;0.10;;;7.90;99.90;;;;;;5020080;28;20193;-84
2023/03/15 12:15:10;;;;;;;0.10;0.10;;;8.20;99.90;;;;;;5018519;28;20605;-84
2023/03/15 12:17:58;;;;;;;0.10;0.10;;;7.90;99.90;;;;;;5018041;28;20200;-83
2023/03/15 12:21:07;;;;;;;0.10;0.10;;;8.50;99.90;;;;;;5017013;28;20200;-85
2023/03/15 12:23:41;;;;;;;0.10;0.10;;;7.70;99.90;;;;;;4937174;28;20276;-84
2023/03/15 12:26:25;;;;;;;0.10;0.10;;;7.70;99.90;;;;;;5017808;28;20192;-83
2023/03/15 12:29:22;;;;;;;0.10;0.10;;;8.00;99.90;;;;;;5017524;28;20236;-84
2023/03/15 12:32:12;;;;;;;0.10;0.10;;;7.50;99.90;;;;;;4999499;28;20217;-83
2023/03/15 12:35:07;;;;;;;0.10;0.10;;;7.20;99.90;;;;;;5034771;28;20282;-84
2023/03/15 12:37:43;;;;;;;0.10;0.10;;;7.00;99.90;;;;;;5017583;28;20182;-84
2023/03/15 12:40:15;;;;;;;0.10;0.10;;;6.40;99.90;;;;;;5014703;28;20201;-84
2023/03/15 12:42:41;;;;;;;0.10;0.10;;;6.50;99.90;;;;;;5016060;28;20268;-84
2023/03/15 12:45:16;;;;;;;0.10;0.10;;;6.60;99.90;;;;;;5016286;28;21110;-84
2023/03/15 12:47:50;;;;;;;0.10;0.10;;;6.70;99.90;;;;;;5032262;28;20655;-84
2023/03/15 12:50:36;;;;;;;0.10;0.10;;;6.80;99.90;;;;;;5015834;28;20209;-84
2023/03/15 12:53:16;;;;;;;0.10;0.10;;;6.80;99.90;;;;;;5012305;28;20212;-84
2023/03/15 12:55:42;;;;;;;0.10;0.10;;;6.90;99.90;;;;;;5014871;28;20191;-84
2023/03/15 12:58:12;;;;;;;0.10;0.10;;;7.40;99.90;;;;;;5014660;28;20292;-83
2023/03/15 13:00:40;;;;;;;0.10;0.10;;;7.60;99.90;;;;;;5013683;28;20276;-84
2023/03/15 13:03:15;;;;;;;0.10;0.10;;;8.10;99.90;;;;;;5030908;28;20567;-83
2023/03/15 13:05:55;;;;;;;0.00;0.00;;;7.50;99.90;;;;;;5013214;28;20738;-84